createdAt,value
2017-07-22T00:00:53.961Z,77
2017-07-22T00:01:53.941Z,76.81
2017-07-22T00:02:53.919Z,77.09
2017-07-22T00:03:53.924Z,77.19
2017-07-22T00:04:53.882Z,76.9
2017-07-22T00:05:53.861Z,77.09
2017-07-22T00:06:53.840Z,77.19
2017-07-22T00:07:53.820Z,77.19
2017-07-22T00:08:53.802Z,76.81
2017-07-22T00:09:53.776Z,77.19
2017-07-22T00:10:53.763Z,77.09
2017-07-22T00:11:53.792Z,77.29
2017-07-22T00:12:53.725Z,77.67
2017-07-22T00:13:53.701Z,77.29
2017-07-22T00:14:53.684Z,77.38
2017-07-22T00:15:53.663Z,77.58
2017-07-22T00:16:53.646Z,77.58
2017-07-22T00:17:53.631Z,77.76
2017-07-22T00:18:53.608Z,77.58
2017-07-22T00:19:53.643Z,77.38
2017-07-22T00:20:53.565Z,77.29
2017-07-22T00:21:53.554Z,78.34
2017-07-22T00:22:53.529Z,77.76
2017-07-22T00:23:53.511Z,78.06
2017-07-22T00:24:53.491Z,78.06
2017-07-22T00:25:53.475Z,77.96
2017-07-22T00:26:53.448Z,77.76
2017-07-22T00:27:53.437Z,77.96
2017-07-22T00:28:53.415Z,78.25
2017-07-22T00:29:53.392Z,77.86
2017-07-22T00:30:53.377Z,78.15
2017-07-22T00:31:53.362Z,78.44
2017-07-22T00:32:53.340Z,78.44
2017-07-22T00:33:53.316Z,78.53
2017-07-22T00:34:53.294Z,78.44
2017-07-22T00:35:53.267Z,78.25
2017-07-22T00:36:53.256Z,78.53
2017-07-22T00:37:53.235Z,78.44
2017-07-22T00:38:53.214Z,78.53
2017-07-22T00:39:53.200Z,78.34
2017-07-22T00:40:53.171Z,78.44
2017-07-22T00:41:53.160Z,78.44
2017-07-22T00:42:53.178Z,78.53
2017-07-22T00:43:53.121Z,78.34
2017-07-22T00:44:53.108Z,78.34
2017-07-22T00:45:53.079Z,78.53
2017-07-22T00:46:52.755Z,78.44
2017-07-22T00:47:53.044Z,78.53
2017-07-22T00:48:53.021Z,79.11
2017-07-22T00:49:53.018Z,78.53
2017-07-22T00:50:53.033Z,78.63
2017-07-22T00:51:52.966Z,79.02
2017-07-22T00:52:52.946Z,78.83
2017-07-22T00:53:52.921Z,78.63
2017-07-22T00:54:52.902Z,78.73
2017-07-22T00:55:52.903Z,78.83
2017-07-22T00:56:52.864Z,78.44
2017-07-22T00:57:52.904Z,78.53
2017-07-22T00:58:52.877Z,78.83
2017-07-22T00:59:52.808Z,79.3
2017-07-22T01:00:52.785Z,79.11
2017-07-22T01:01:52.766Z,79.4
2017-07-22T01:02:52.746Z,79.17
2017-07-22T01:03:52.729Z,79.3
2017-07-22T01:04:52.712Z,79.4
2017-07-22T01:05:52.388Z,79.21
2017-07-22T01:06:52.671Z,79.02
2017-07-22T01:07:52.652Z,79.02
2017-07-22T01:08:52.631Z,79.3
2017-07-22T01:09:52.659Z,79.3
2017-07-22T01:10:52.593Z,79.3
2017-07-22T01:11:52.573Z,79.11
2017-07-22T01:12:52.557Z,79.69
2017-07-22T01:13:52.529Z,80.07
2017-07-22T01:14:52.511Z,79.79
2017-07-22T01:15:52.490Z,79.69
2017-07-22T01:16:52.471Z,79.79
2017-07-22T01:17:52.454Z,79.79
2017-07-22T01:18:52.437Z,79.98
2017-07-22T01:19:52.416Z,80.07
2017-07-22T01:20:52.402Z,79.84
2017-07-22T01:21:52.372Z,79.94
2017-07-22T01:22:52.354Z,79.79
2017-07-22T01:23:52.335Z,80.22
2017-07-22T01:24:52.312Z,80.36
2017-07-22T01:25:52.296Z,80.36
2017-07-22T01:26:52.278Z,80.27
2017-07-22T01:27:52.259Z,80.13
2017-07-22T01:28:52.239Z,80.32
2017-07-22T01:29:52.221Z,79.94
2017-07-22T01:30:52.204Z,80.22
2017-07-22T01:31:52.182Z,80.61
2017-07-22T01:32:52.156Z,80.51
2017-07-22T01:33:52.144Z,80.61
2017-07-22T01:34:52.119Z,80.51
2017-07-22T01:35:52.104Z,80.42
2017-07-22T01:36:52.082Z,80.61
2017-07-22T01:37:52.065Z,80.61
2017-07-22T01:38:52.043Z,80.61
2017-07-22T01:39:52.023Z,80.71
2017-07-22T01:40:51.998Z,80.61
2017-07-22T01:41:51.980Z,80.61
2017-07-22T01:42:52.010Z,80.8
2017-07-22T01:43:51.942Z,80.61
2017-07-22T01:44:51.921Z,80.8
2017-07-22T01:45:51.600Z,80.51
2017-07-22T01:46:51.887Z,80.61
2017-07-22T01:47:51.861Z,80.8
2017-07-22T01:48:51.845Z,80.61
2017-07-22T01:49:51.819Z,81.19
2017-07-22T01:50:51.817Z,80.9
2017-07-22T01:51:51.787Z,80.99
2017-07-22T01:52:51.461Z,80.71
2017-07-22T01:53:51.442Z,80.61
2017-07-22T01:54:51.722Z,80.61
2017-07-22T01:55:51.715Z,81.19
2017-07-22T01:56:51.684Z,81.09
2017-07-22T01:57:51.665Z,80.8
2017-07-22T01:58:51.644Z,80.99
2017-07-22T01:59:51.623Z,81.09
2017-07-22T02:00:51.307Z,81.19
2017-07-22T02:01:51.592Z,80.8
2017-07-22T02:02:51.567Z,80.99
2017-07-22T02:03:51.548Z,80.99
2017-07-22T02:04:51.531Z,81.28
2017-07-22T02:05:51.510Z,80.71
2017-07-22T02:06:51.485Z,81.28
2017-07-22T02:07:51.467Z,80.99
2017-07-22T02:08:51.448Z,80.99
2017-07-22T02:09:51.481Z,80.61
2017-07-22T02:10:51.416Z,80.9
2017-07-22T02:11:51.398Z,80.8
2017-07-22T02:12:51.369Z,81.48
2017-07-22T02:13:51.350Z,81.19
2017-07-22T02:14:51.337Z,80.61
2017-07-22T02:15:51.369Z,81.19
2017-07-22T02:16:51.292Z,81.23
2017-07-22T02:17:51.280Z,81.48
2017-07-22T02:18:51.250Z,81.23
2017-07-22T02:19:51.239Z,81.23
2017-07-22T02:20:51.257Z,81.38
2017-07-22T02:21:51.198Z,81.28
2017-07-22T02:22:51.181Z,81.23
2017-07-22T02:23:51.160Z,81.32
2017-07-22T02:24:51.135Z,81.13
2017-07-22T02:25:51.114Z,81.13
2017-07-22T02:26:51.099Z,81.23
2017-07-22T02:27:51.077Z,81.04
2017-07-22T02:28:51.062Z,81.04
2017-07-22T02:29:51.032Z,81.09
2017-07-22T02:30:51.027Z,80.94
2017-07-22T02:31:51.008Z,81.23
2017-07-22T02:32:50.981Z,81.23
2017-07-22T02:33:50.954Z,81.04
2017-07-22T02:34:50.642Z,81.23
2017-07-22T02:35:50.919Z,81.38
2017-07-22T02:36:50.902Z,81.42
2017-07-22T02:37:50.889Z,81.42
2017-07-22T02:38:50.865Z,81.42
2017-07-22T02:39:50.843Z,81.23
2017-07-22T02:40:50.823Z,81.61
2017-07-22T02:41:50.510Z,81.52
2017-07-22T02:42:50.780Z,81.9
2017-07-22T02:43:50.759Z,81.9
2017-07-22T02:44:50.740Z,81.9
2017-07-22T02:45:50.727Z,81.99
2017-07-22T02:46:50.704Z,81.52
2017-07-22T02:47:50.683Z,81.71
2017-07-22T02:48:50.663Z,81.52
2017-07-22T02:49:50.647Z,81.61
2017-07-22T02:50:50.630Z,81.32
2017-07-22T02:51:50.609Z,81.81
2017-07-22T02:52:50.580Z,82.09
2017-07-22T02:53:50.561Z,82.09
2017-07-22T02:54:50.550Z,82.38
2017-07-22T02:55:50.535Z,82.86
2017-07-22T02:56:50.503Z,83.73
2017-07-22T02:57:50.484Z,83.34
2017-07-22T02:58:50.471Z,85.17
2017-07-22T02:59:50.144Z,86.52
2017-07-22T03:00:50.423Z,87.53
2017-07-22T03:01:50.105Z,89.26
2017-07-22T03:02:50.441Z,90.94
2017-07-22T03:03:50.367Z,92.38
2017-07-22T03:04:50.343Z,93.2
2017-07-22T03:05:50.326Z,93.49
2017-07-22T03:06:50.317Z,95.21
2017-07-22T03:07:50.290Z,95.31
2017-07-22T03:08:50.268Z,95.94
2017-07-22T03:09:50.253Z,97.47
2017-07-22T03:10:50.227Z,98.53
2017-07-22T03:11:50.207Z,98.91
2017-07-22T03:12:50.198Z,99.39
2017-07-22T03:13:50.170Z,99.99
2017-07-22T03:14:50.145Z,99.99
2017-07-22T03:15:50.125Z,99.99
2017-07-22T03:16:49.806Z,99.99
2017-07-22T03:17:50.081Z,99.99
2017-07-22T03:18:50.063Z,99.99
2017-07-22T03:19:50.049Z,99.99
2017-07-22T03:20:50.023Z,99.99
2017-07-22T03:21:50.063Z,99.99
2017-07-22T03:22:49.984Z,99.99
2017-07-22T03:23:49.963Z,99.99
2017-07-22T03:24:49.941Z,99.99
2017-07-22T03:25:49.921Z,99.99
2017-07-22T03:26:49.902Z,99.99
2017-07-22T03:27:49.884Z,99.99
2017-07-22T03:28:49.861Z,99.99
2017-07-22T03:29:49.838Z,99.99
2017-07-22T03:30:49.831Z,99.99
2017-07-22T03:31:49.803Z,99.99
2017-07-22T03:32:49.779Z,99.99
2017-07-22T03:33:49.758Z,99.99
2017-07-22T03:34:49.739Z,99.99
2017-07-22T03:35:49.767Z,99.99
2017-07-22T03:36:49.695Z,99.99
2017-07-22T03:37:49.677Z,99.99
2017-07-22T03:38:49.654Z,99.99
2017-07-22T03:39:49.639Z,99.99
2017-07-22T03:40:49.618Z,99.99
2017-07-22T03:41:49.600Z,99.99
2017-07-22T03:42:49.576Z,99.99
2017-07-22T03:43:49.554Z,99.99
2017-07-22T03:44:49.232Z,99.99
2017-07-22T03:45:49.209Z,99.99
2017-07-22T03:46:49.492Z,99.99
2017-07-22T03:47:49.479Z,99.99
2017-07-22T03:48:49.448Z,99.99
2017-07-22T03:49:49.440Z,99.99
2017-07-22T03:50:49.416Z,99.99
2017-07-22T03:51:49.141Z,99.99
2017-07-22T03:52:49.367Z,99.99
2017-07-22T03:53:49.352Z,99.99
2017-07-22T03:54:49.333Z,99.99
2017-07-22T03:55:49.315Z,99.99
2017-07-22T03:56:49.289Z,99.99
2017-07-22T03:57:49.273Z,99.99
2017-07-22T03:58:49.252Z,99.99
2017-07-22T03:59:49.231Z,99.99
2017-07-22T04:00:49.211Z,99.99
2017-07-22T04:01:49.189Z,99.99
2017-07-22T04:02:49.169Z,99.99
2017-07-22T04:03:49.150Z,99.99
2017-07-22T04:04:49.128Z,99.99
2017-07-22T04:05:49.110Z,99.99
2017-07-22T04:06:49.080Z,99.99
2017-07-22T04:07:49.079Z,99.99
2017-07-22T04:08:49.040Z,99.99
2017-07-22T04:09:49.027Z,99.99
2017-07-22T04:10:49.006Z,99.99
2017-07-22T04:11:48.684Z,99.99
2017-07-22T04:12:48.965Z,99.99
2017-07-22T04:13:48.947Z,99.99
2017-07-22T04:14:48.924Z,99.99
2017-07-22T04:15:48.907Z,99.99
2017-07-22T04:16:48.891Z,99.99
2017-07-22T04:17:48.869Z,99.99
2017-07-22T04:18:48.841Z,99.99
2017-07-22T04:19:48.821Z,99.99
2017-07-22T04:20:48.503Z,99.99
2017-07-22T04:21:48.780Z,99.99
2017-07-22T04:22:48.759Z,99.99
2017-07-22T04:23:48.739Z,99.99
2017-07-22T04:24:48.721Z,99.99
2017-07-22T04:25:48.703Z,99.99
2017-07-22T04:26:48.678Z,99.99
2017-07-22T04:27:48.659Z,99.99
2017-07-22T04:28:48.637Z,99.99
2017-07-22T04:29:48.620Z,99.99
2017-07-22T04:30:48.296Z,99.99
2017-07-22T04:31:48.328Z,99.99
2017-07-22T04:32:48.557Z,99.99
2017-07-22T04:33:48.541Z,99.99
2017-07-22T04:34:48.516Z,99.99
2017-07-22T04:35:48.493Z,99.99
2017-07-22T04:36:48.476Z,99.99
2017-07-22T04:37:48.453Z,99.99
2017-07-22T04:38:48.185Z,99.99
2017-07-22T04:39:48.414Z,99.99
2017-07-22T04:40:48.393Z,99.99
2017-07-22T04:41:48.379Z,99.99
2017-07-22T04:42:48.354Z,99.99
2017-07-22T04:43:48.335Z,99.99
2017-07-22T04:44:48.375Z,99.99
2017-07-22T04:45:48.292Z,99.99
2017-07-22T04:46:48.275Z,99.99
2017-07-22T04:47:48.249Z,99.99
2017-07-22T04:48:48.233Z,99.99
2017-07-22T04:49:48.212Z,99.99
2017-07-22T04:50:48.192Z,99.99
2017-07-22T04:51:48.172Z,99.99
2017-07-22T04:52:48.148Z,99.99
2017-07-22T04:53:48.134Z,99.99
2017-07-22T04:54:48.110Z,99.99
2017-07-22T04:55:48.088Z,99.99
2017-07-22T04:56:48.117Z,99.99
2017-07-22T04:57:47.752Z,99.99
2017-07-22T04:58:47.749Z,99.99
2017-07-22T04:59:48.012Z,99.99
2017-07-22T05:00:47.983Z,99.99
2017-07-22T05:01:47.970Z,99.99
2017-07-22T05:02:47.944Z,99.99
2017-07-22T05:03:47.931Z,99.99
2017-07-22T05:04:47.907Z,99.99
2017-07-22T05:05:47.882Z,99.99
2017-07-22T05:06:47.866Z,99.99
2017-07-22T05:07:47.850Z,99.99
2017-07-22T05:08:47.821Z,99.99
2017-07-22T05:09:47.805Z,99.99
2017-07-22T05:10:47.780Z,99.99
2017-07-22T05:11:47.769Z,99.99
2017-07-22T05:12:47.743Z,99.99
2017-07-22T05:13:47.724Z,99.99
2017-07-22T05:14:47.701Z,99.99
2017-07-22T05:15:47.685Z,99.99
2017-07-22T05:16:47.358Z,99.99
2017-07-22T05:17:47.642Z,99.99
2017-07-22T05:18:47.619Z,99.99
2017-07-22T05:19:47.347Z,99.99
2017-07-22T05:20:47.574Z,99.99
2017-07-22T05:21:47.259Z,99.99
2017-07-22T05:22:47.544Z,99.99
2017-07-22T05:23:47.518Z,99.99
2017-07-22T05:24:47.496Z,99.99
2017-07-22T05:25:47.481Z,99.99
2017-07-22T05:26:47.464Z,99.99
2017-07-22T05:27:47.438Z,99.99
2017-07-22T05:28:47.413Z,99.99
2017-07-22T05:29:47.404Z,99.99
2017-07-22T05:30:47.376Z,99.99
2017-07-22T05:31:47.354Z,99.99
2017-07-22T05:32:47.337Z,99.99
2017-07-22T05:33:47.334Z,99.99
2017-07-22T05:34:47.298Z,99.99
2017-07-22T05:35:47.278Z,99.99
2017-07-22T05:36:47.258Z,99.99
2017-07-22T05:37:46.932Z,99.99
2017-07-22T05:38:47.223Z,99.99
2017-07-22T05:39:47.199Z,99.99
2017-07-22T05:40:47.175Z,99.99
2017-07-22T05:41:47.154Z,99.99
2017-07-22T05:42:47.137Z,99.99
2017-07-22T05:43:47.112Z,99.99
2017-07-22T05:44:47.099Z,99.99
2017-07-22T05:45:47.075Z,99.99
2017-07-22T05:46:47.052Z,99.99
2017-07-22T05:47:47.028Z,99.99
2017-07-22T05:48:47.004Z,99.99
2017-07-22T05:49:46.987Z,99.99
2017-07-22T05:50:46.967Z,99.99
2017-07-22T05:51:46.948Z,99.99
2017-07-22T05:52:46.934Z,99.99
2017-07-22T05:53:46.910Z,99.99
2017-07-22T05:54:46.897Z,99.99
2017-07-22T05:55:46.871Z,99.99
2017-07-22T05:56:46.549Z,99.99
2017-07-22T05:57:46.549Z,99.99
2017-07-22T05:58:46.820Z,99.99
2017-07-22T05:59:46.793Z,99.99
2017-07-22T06:00:46.765Z,99.99
2017-07-22T06:01:46.747Z,99.99
2017-07-22T06:02:46.727Z,99.99
2017-07-22T06:03:46.708Z,99.99
2017-07-22T06:04:46.690Z,99.99
2017-07-22T06:05:46.672Z,99.99
2017-07-22T06:06:46.654Z,99.99
2017-07-22T06:07:46.625Z,99.99
2017-07-22T06:08:46.614Z,99.99
2017-07-22T06:09:46.590Z,99.99
2017-07-22T06:10:46.619Z,99.99
2017-07-22T06:11:46.550Z,99.99
2017-07-22T06:12:46.525Z,99.99
2017-07-22T06:13:46.510Z,99.99
2017-07-22T06:14:46.492Z,99.99
2017-07-22T06:15:46.467Z,99.99
2017-07-22T06:16:46.450Z,99.99
2017-07-22T06:17:46.430Z,99.99
2017-07-22T06:18:46.406Z,99.99
2017-07-22T06:19:46.387Z,99.99
2017-07-22T06:20:46.377Z,99.99
2017-07-22T06:21:46.347Z,99.99
2017-07-22T06:22:46.328Z,99.99
2017-07-22T06:23:46.313Z,99.99
2017-07-22T06:24:46.289Z,99.99
2017-07-22T06:25:46.271Z,99.99
2017-07-22T06:26:46.247Z,99.99
2017-07-22T06:27:46.234Z,99.99
2017-07-22T06:28:45.907Z,99.99
2017-07-22T06:29:46.193Z,99.99
2017-07-22T06:30:46.177Z,99.99
2017-07-22T06:31:46.154Z,99.99
2017-07-22T06:32:46.133Z,99.99
2017-07-22T06:33:46.115Z,99.99
2017-07-22T06:34:46.138Z,99.99
2017-07-22T06:35:46.076Z,99.99
2017-07-22T06:36:45.756Z,99.99
2017-07-22T06:37:46.037Z,99.99
2017-07-22T06:38:46.016Z,99.99
2017-07-22T06:39:45.992Z,99.99
2017-07-22T06:40:45.977Z,99.99
2017-07-22T06:41:45.955Z,99.99
2017-07-22T06:42:45.938Z,99.99
2017-07-22T06:43:45.918Z,99.99
2017-07-22T06:44:45.914Z,99.99
2017-07-22T06:45:45.881Z,99.99
2017-07-22T06:46:45.863Z,99.99
2017-07-22T06:47:45.844Z,99.99
2017-07-22T06:48:45.832Z,99.99
2017-07-22T06:49:45.816Z,99.99
2017-07-22T06:50:45.797Z,99.99
2017-07-22T06:51:45.771Z,99.99
2017-07-22T06:52:45.758Z,99.99
2017-07-22T06:53:45.748Z,99.99
2017-07-22T06:54:45.732Z,99.99
2017-07-22T06:55:45.711Z,99.99
2017-07-22T06:56:45.695Z,99.99
2017-07-22T06:57:45.683Z,99.99
2017-07-22T06:58:45.663Z,99.99
2017-07-22T06:59:45.648Z,99.99
2017-07-22T07:00:45.623Z,99.99
2017-07-22T07:01:45.623Z,99.99
2017-07-22T07:02:45.600Z,99.99
2017-07-22T07:03:45.593Z,99.99
2017-07-22T07:04:45.573Z,99.99
2017-07-22T07:05:45.561Z,99.99
2017-07-22T07:06:45.550Z,99.99
2017-07-22T07:07:45.542Z,99.99
2017-07-22T07:08:45.221Z,99.99
2017-07-22T07:09:45.508Z,99.99
2017-07-22T07:10:45.500Z,99.99
2017-07-22T07:11:45.479Z,99.99
2017-07-22T07:12:45.163Z,99.99
2017-07-22T07:13:45.705Z,99.99
2017-07-22T07:14:45.442Z,99.99
2017-07-22T07:15:45.428Z,99.99
2017-07-22T07:16:45.422Z,99.69
2017-07-22T07:17:45.408Z,99.79
2017-07-22T07:18:45.400Z,99.99
2017-07-22T07:19:45.081Z,99.16
2017-07-22T07:20:45.372Z,98.88
2017-07-22T07:21:45.356Z,98.2
2017-07-22T07:22:45.351Z,97.72
2017-07-22T07:23:45.334Z,97.62
2017-07-22T07:24:45.328Z,97.76
2017-07-22T07:25:45.314Z,98.44
2017-07-22T07:26:45.310Z,96.6
2017-07-22T07:27:45.287Z,95.97
2017-07-22T07:28:45.287Z,96.7
2017-07-22T07:29:45.268Z,97.18
2017-07-22T07:30:45.264Z,97.47
2017-07-22T07:31:45.247Z,98.05
2017-07-22T07:32:45.242Z,97.23
2017-07-22T07:33:45.225Z,95.68
2017-07-22T07:34:45.215Z,95.97
2017-07-22T07:35:45.218Z,95.97
2017-07-22T07:36:45.195Z,96.26
2017-07-22T07:37:45.244Z,96.6
2017-07-22T07:38:45.176Z,95.97
2017-07-22T07:39:45.164Z,96.17
2017-07-22T07:40:45.154Z,95.29
2017-07-22T07:41:45.162Z,95.49
2017-07-22T07:42:45.156Z,95.87
2017-07-22T07:43:45.128Z,96.36
2017-07-22T07:44:45.127Z,96.65
2017-07-22T07:45:45.112Z,96.02
2017-07-22T07:46:45.108Z,95.73
2017-07-22T07:47:45.095Z,95
2017-07-22T07:48:45.081Z,95
2017-07-22T07:49:45.069Z,94.61
2017-07-22T07:50:45.060Z,93.74
2017-07-22T07:51:45.051Z,94.76
2017-07-22T07:52:45.044Z,95.97
2017-07-22T07:53:45.034Z,94.9
2017-07-22T07:54:45.023Z,94.57
2017-07-22T07:55:45.022Z,95.34
2017-07-22T07:56:45.002Z,95
2017-07-22T07:57:44.993Z,95.78
2017-07-22T07:58:44.987Z,95.53
2017-07-22T07:59:44.988Z,95.87
2017-07-22T08:00:44.975Z,95.78
2017-07-22T08:01:44.960Z,94.95
2017-07-22T08:02:44.652Z,94.66
2017-07-22T08:03:44.943Z,94.32
2017-07-22T08:04:44.629Z,94.51
2017-07-22T08:05:44.933Z,94.51
2017-07-22T08:06:44.930Z,94.42
2017-07-22T08:07:44.914Z,94.8
2017-07-22T08:08:44.910Z,93.78
2017-07-22T08:09:44.893Z,93.78
2017-07-22T08:10:44.893Z,93.59
2017-07-22T08:11:44.580Z,93.25
2017-07-22T08:12:44.873Z,93.44
2017-07-22T08:13:44.867Z,93.69
2017-07-22T08:14:44.857Z,94.02
2017-07-22T08:15:44.844Z,94.51
2017-07-22T08:16:45.089Z,93.83
2017-07-22T08:17:44.830Z,93.63
2017-07-22T08:18:44.832Z,94.22
2017-07-22T08:19:44.821Z,93.44
2017-07-22T08:20:44.807Z,93.44
2017-07-22T08:21:44.800Z,93.35
2017-07-22T08:22:44.496Z,93.63
2017-07-22T08:23:44.786Z,93.98
2017-07-22T08:24:44.781Z,94.66
2017-07-22T08:25:44.777Z,95
2017-07-22T08:26:44.771Z,94.21
2017-07-22T08:27:44.758Z,92.95
2017-07-22T08:28:44.760Z,92.66
2017-07-22T08:29:44.754Z,93.05
2017-07-22T08:30:44.747Z,93.05
2017-07-22T08:31:44.734Z,93.15
2017-07-22T08:32:44.721Z,91.69
2017-07-22T08:33:44.718Z,91.5
2017-07-22T08:34:44.712Z,93.01
2017-07-22T08:35:44.705Z,92.52
2017-07-22T08:36:44.693Z,93.54
2017-07-22T08:37:44.687Z,93.24
2017-07-22T08:38:44.727Z,92.32
2017-07-22T08:39:44.676Z,92.12
2017-07-22T08:40:44.666Z,92.94
2017-07-22T08:41:44.659Z,91.83
2017-07-22T08:42:44.661Z,90.75
2017-07-22T08:43:44.344Z,91.63
2017-07-22T08:44:44.635Z,90.95
2017-07-22T08:45:44.629Z,90.42
2017-07-22T08:46:44.625Z,91.2
2017-07-22T08:47:44.619Z,92.46
2017-07-22T08:48:44.614Z,91.39
2017-07-22T08:49:44.604Z,92.56
2017-07-22T08:50:44.605Z,93.09
2017-07-22T08:51:44.600Z,92.65
2017-07-22T08:52:44.588Z,92.99
2017-07-22T08:53:44.582Z,92.54
2017-07-22T08:54:44.574Z,91.71
2017-07-22T08:55:44.567Z,92.69
2017-07-22T08:56:44.608Z,91.37
2017-07-22T08:57:44.553Z,91.8
2017-07-22T08:58:44.249Z,92.1
2017-07-22T08:59:44.539Z,92.44
2017-07-22T09:00:44.537Z,90.69
2017-07-22T09:01:44.537Z,90.16
2017-07-22T09:02:44.221Z,90.3
2017-07-22T09:03:44.515Z,90.88
2017-07-22T09:04:44.504Z,90.24
2017-07-22T09:05:44.507Z,91.46
2017-07-22T09:06:44.495Z,89.89
2017-07-22T09:07:44.491Z,89.16
2017-07-22T09:08:44.481Z,90.14
2017-07-22T09:09:44.476Z,90.23
2017-07-22T09:10:44.472Z,89.06
2017-07-22T09:11:44.464Z,89.75
2017-07-22T09:12:44.459Z,90.53
2017-07-22T09:13:44.448Z,89.5
2017-07-22T09:14:44.446Z,87.93
2017-07-22T09:15:44.439Z,87.68
2017-07-22T09:16:44.433Z,88.71
2017-07-22T09:17:44.430Z,88.37
2017-07-22T09:18:44.425Z,85.92
2017-07-22T09:19:44.415Z,88.37
2017-07-22T09:20:44.414Z,88.17
2017-07-22T09:21:44.405Z,86.74
2017-07-22T09:22:44.410Z,86.02
2017-07-22T09:23:44.397Z,85.14
2017-07-22T09:24:44.392Z,85.58
2017-07-22T09:25:44.387Z,87.05
2017-07-22T09:26:44.382Z,81.97
2017-07-22T09:27:44.368Z,84.51
2017-07-22T09:28:44.365Z,85
2017-07-22T09:29:44.360Z,85.1
2017-07-22T09:30:44.355Z,82.75
2017-07-22T09:31:44.047Z,80.8
2017-07-22T09:32:44.345Z,84.08
2017-07-22T09:33:44.337Z,86.52
2017-07-22T09:34:44.337Z,84.86
2017-07-22T09:35:44.327Z,82.17
2017-07-22T09:36:44.320Z,82.85
2017-07-22T09:37:44.316Z,81.35
2017-07-22T09:38:44.315Z,77.73
2017-07-22T09:39:44.306Z,79
2017-07-22T09:40:44.310Z,81.74
2017-07-22T09:41:44.289Z,81.99
2017-07-22T09:42:44.287Z,80.18
2017-07-22T09:43:44.276Z,74.8
2017-07-22T09:44:44.277Z,76.21
2017-07-22T09:45:44.273Z,73.5
2017-07-22T09:46:44.261Z,71.75
2017-07-22T09:47:44.256Z,70.18
2017-07-22T09:48:44.255Z,64.48
2017-07-22T09:49:44.296Z,62.21
2017-07-22T09:50:44.238Z,69.33
2017-07-22T09:51:44.239Z,72.94
2017-07-22T09:52:44.233Z,72.41
2017-07-22T09:53:44.221Z,68.74
2017-07-22T09:54:44.213Z,69.56
2017-07-22T09:55:44.205Z,70.73
2017-07-22T09:56:44.203Z,69.65
2017-07-22T09:57:44.202Z,70.04
2017-07-22T09:58:44.201Z,65.95
2017-07-22T09:59:44.181Z,62.15
2017-07-22T10:00:44.176Z,66.14
2017-07-22T10:01:44.168Z,66.83
2017-07-22T10:02:44.187Z,66.86
2017-07-22T10:03:44.158Z,65.23
2017-07-22T10:04:44.146Z,66.02
2017-07-22T10:05:44.148Z,62.13
2017-07-22T10:06:44.138Z,63.12
2017-07-22T10:07:44.138Z,59.92
2017-07-22T10:08:44.120Z,58.94
2017-07-22T10:09:44.112Z,59.82
2017-07-22T10:10:44.105Z,59.5
2017-07-22T10:11:44.106Z,57.87
2017-07-22T10:12:44.096Z,55.42
2017-07-22T10:13:44.092Z,57.28
2017-07-22T10:14:44.090Z,56.3
2017-07-22T10:15:44.098Z,56.2
2017-07-22T10:16:44.079Z,53.96
2017-07-22T10:17:44.082Z,52.66
2017-07-22T10:18:44.068Z,55.27
2017-07-22T10:19:44.054Z,58.17
2017-07-22T10:20:44.059Z,57.32
2017-07-22T10:21:44.042Z,58.5
2017-07-22T10:22:44.039Z,58.11
2017-07-22T10:23:44.034Z,56.54
2017-07-22T10:24:44.033Z,58.5
2017-07-22T10:25:44.026Z,59.4
2017-07-22T10:26:44.016Z,59.5
2017-07-22T10:27:44.011Z,60.57
2017-07-22T10:28:44.310Z,59.92
2017-07-22T10:29:43.998Z,58.78
2017-07-22T10:30:43.993Z,57.6
2017-07-22T10:31:43.990Z,56.46
2017-07-22T10:32:43.983Z,54.21
2017-07-22T10:33:44.052Z,55.87
2017-07-22T10:34:43.973Z,55.8
2017-07-22T10:35:43.961Z,55.51
2017-07-22T10:36:43.957Z,51
2017-07-22T10:37:43.948Z,51.98
2017-07-22T10:38:43.947Z,51.66
2017-07-22T10:39:43.991Z,53.91
2017-07-22T10:40:43.941Z,56.06
2017-07-22T10:41:43.632Z,51.39
2017-07-22T10:42:43.927Z,52.96
2017-07-22T10:43:43.926Z,53.55
2017-07-22T10:44:43.918Z,48.55
2017-07-22T10:45:43.918Z,50.42
2017-07-22T10:46:43.909Z,48.94
2017-07-22T10:47:43.908Z,49.63
2017-07-22T10:48:43.906Z,49.65
2017-07-22T10:49:43.893Z,49.53
2017-07-22T10:50:43.896Z,49.53
2017-07-22T10:51:43.884Z,49.31
2017-07-22T10:52:43.876Z,48.11
2017-07-22T10:53:43.878Z,46.53
2017-07-22T10:54:43.866Z,49.22
2017-07-22T10:55:43.854Z,50.43
2017-07-22T10:56:43.850Z,49.58
2017-07-22T10:57:43.854Z,49.32
2017-07-22T10:58:43.840Z,47.27
2017-07-22T10:59:43.531Z,45.51
2017-07-22T11:00:43.840Z,46.58
2017-07-22T11:01:43.822Z,47.56
2017-07-22T11:02:43.826Z,47.77
2017-07-22T11:03:43.810Z,46.82
2017-07-22T11:04:43.809Z,46.75
2017-07-22T11:05:43.802Z,45.18
2017-07-22T11:06:43.784Z,43.73
2017-07-22T11:07:43.783Z,41.39
2017-07-22T11:08:43.777Z,42.17
2017-07-22T11:09:43.772Z,41.97
2017-07-22T11:10:43.463Z,41.5
2017-07-22T11:11:43.771Z,40.63
2017-07-22T11:12:43.765Z,40.7
2017-07-22T11:13:43.760Z,41.88
2017-07-22T11:14:43.750Z,40.39
2017-07-22T11:15:43.745Z,41.07
2017-07-22T11:16:43.738Z,40.47
2017-07-22T11:17:43.733Z,41.91
2017-07-22T11:18:43.722Z,43.65
2017-07-22T11:19:43.713Z,43.92
2017-07-22T11:20:43.711Z,44.68
2017-07-22T11:21:43.708Z,45.36
2017-07-22T11:22:43.700Z,45.25
2017-07-22T11:23:43.696Z,46
2017-07-22T11:24:43.684Z,46.39
2017-07-22T11:25:43.383Z,46.49
2017-07-22T11:26:43.675Z,46.88
2017-07-22T11:27:43.369Z,47.05
2017-07-22T11:28:43.654Z,46.86
2017-07-22T11:29:43.643Z,47.05
2017-07-22T11:30:43.633Z,46.86
2017-07-22T11:31:43.636Z,47.52
2017-07-22T11:32:43.623Z,47.52
2017-07-22T11:33:43.611Z,47.03
2017-07-22T11:34:43.597Z,46.93
2017-07-22T11:35:43.585Z,46.83
2017-07-22T11:36:43.579Z,47.88
2017-07-22T11:37:43.570Z,46.23
2017-07-22T11:38:43.563Z,46.4
2017-07-22T11:39:43.541Z,46.78
2017-07-22T11:40:43.535Z,46.69
2017-07-22T11:41:43.528Z,46.67
2017-07-22T11:42:43.513Z,47.83
2017-07-22T11:43:43.616Z,47.52
2017-07-22T11:44:43.494Z,47.91
2017-07-22T11:45:43.482Z,48.39
2017-07-22T11:46:43.471Z,48.88
2017-07-22T11:47:43.450Z,49.37
2017-07-22T11:48:43.140Z,49.07
2017-07-22T11:49:43.430Z,49.63
2017-07-22T11:50:43.469Z,50.73
2017-07-22T11:51:43.405Z,50.43
2017-07-22T11:52:43.385Z,49.85
2017-07-22T11:53:43.377Z,49.66
2017-07-22T11:54:43.364Z,49.95
2017-07-22T11:55:43.346Z,49.19
2017-07-22T11:56:43.334Z,48.88
2017-07-22T11:57:43.578Z,47.74
2017-07-22T11:58:43.308Z,46.57
2017-07-22T11:59:42.996Z,47.81
2017-07-22T12:00:43.287Z,46.84
2017-07-22T12:01:43.264Z,47.81
2017-07-22T12:02:43.300Z,46.74
2017-07-22T12:03:43.245Z,46.74
2017-07-22T12:04:43.227Z,47.71
2017-07-22T12:05:43.215Z,47.71
2017-07-22T12:06:42.896Z,47.81
2017-07-22T12:07:43.183Z,47.71
2017-07-22T12:08:43.174Z,47.52
2017-07-22T12:09:43.161Z,46.84
2017-07-22T12:10:42.840Z,47.42
2017-07-22T12:11:43.131Z,47.71
2017-07-22T12:12:43.118Z,48.49
2017-07-22T12:13:42.797Z,48.68
2017-07-22T12:14:43.094Z,48.3
2017-07-22T12:15:43.070Z,48.2
2017-07-22T12:16:43.053Z,47.93
2017-07-22T12:17:43.043Z,48.03
2017-07-22T12:18:43.032Z,47.42
2017-07-22T12:19:43.012Z,48
2017-07-22T12:20:43.006Z,47.71
2017-07-22T12:21:43.003Z,47.52
2017-07-22T12:22:42.974Z,47.91
2017-07-22T12:23:42.958Z,46.77
2017-07-22T12:24:42.943Z,46.08
2017-07-22T12:25:42.930Z,45.98
2017-07-22T12:26:42.917Z,46.64
2017-07-22T12:27:42.901Z,46.94
2017-07-22T12:28:42.887Z,46.67
2017-07-22T12:29:42.874Z,46.47
2017-07-22T12:30:42.856Z,45.69
2017-07-22T12:31:42.847Z,44.99
2017-07-22T12:32:42.829Z,44.92
2017-07-22T12:33:42.814Z,45.28
2017-07-22T12:34:42.799Z,44.6
2017-07-22T12:35:42.790Z,44.7
2017-07-22T12:37:42.759Z,44.79
2017-07-22T12:38:42.744Z,45.48
2017-07-22T12:39:42.746Z,45.18
2017-07-22T12:40:42.718Z,44.6
2017-07-22T12:41:42.707Z,44.99
2017-07-22T12:42:42.708Z,44.7
2017-07-22T12:43:42.674Z,44.99
2017-07-22T12:44:42.657Z,43.82
2017-07-22T12:45:42.342Z,44.02
2017-07-22T12:46:42.630Z,44.12
2017-07-22T12:47:42.616Z,44.6
2017-07-22T12:48:42.298Z,44.97
2017-07-22T12:49:42.585Z,45.55
2017-07-22T12:50:42.776Z,45.65
2017-07-22T12:51:42.556Z,45.55
2017-07-22T12:52:42.539Z,45.65
2017-07-22T12:53:42.528Z,45.28
2017-07-22T12:54:42.516Z,44.99
2017-07-22T12:55:42.495Z,45.07
2017-07-22T12:56:42.481Z,45.28